sensor_id;sensor_type;location;lat;lon;timestamp;pressure;altitude;pressure_sealevel;temperature
71205;BMP180;58935;54.498;18.544;2022-08-21T18:11:10;100507.60;;;17.86
71205;BMP180;58935;54.498;18.544;2022-08-21T18:13:37;100506.80;;;17.90
71205;BMP180;58935;54.498;18.544;2022-08-21T18:16:05;100510.40;;;17.92
71205;BMP180;58935;54.498;18.544;2022-08-21T18:18:40;100506.60;;;17.98
71205;BMP180;58935;54.498;18.544;2022-08-21T18:21:06;100508.00;;;17.90
71205;BMP180;58935;54.498;18.544;2022-08-21T18:23:31;100509.60;;;17.90
71205;BMP180;58935;54.498;18.544;2022-08-21T18:25:57;100511.80;;;17.90
71205;BMP180;58935;54.498;18.544;2022-08-21T18:28:24;100512.60;;;17.90
71205;BMP180;58935;54.498;18.544;2022-08-21T18:30:51;100516.00;;;17.80
71205;BMP180;58935;54.498;18.544;2022-08-21T18:33:20;100507.20;;;17.80
71205;BMP180;58935;54.498;18.544;2022-08-21T18:35:47;100504.20;;;17.70
71205;BMP180;58935;54.498;18.544;2022-08-21T18:38:13;100501.40;;;17.60
71205;BMP180;58935;54.498;18.544;2022-08-21T18:40:47;100497.00;;;17.52
71205;BMP180;58935;54.498;18.544;2022-08-21T18:43:14;100498.20;;;17.40
71205;BMP180;58935;54.498;18.544;2022-08-21T18:45:40;100504.00;;;17.36
71205;BMP180;58935;54.498;18.544;2022-08-21T18:48:09;100509.20;;;17.30
71205;BMP180;58935;54.498;18.544;2022-08-21T18:50:37;100507.00;;;17.24
71205;BMP180;58935;54.498;18.544;2022-08-21T18:53:03;100512.00;;;17.20
71205;BMP180;58935;54.498;18.544;2022-08-21T18:55:30;100510.80;;;17.20
71205;BMP180;58935;54.498;18.544;2022-08-21T18:57:57;100509.00;;;17.20
71205;BMP180;58935;54.498;18.544;2022-08-21T19:00:29;100507.80;;;17.20
71205;BMP180;58935;54.498;18.544;2022-08-21T19:02:56;100507.00;;;17.20
71205;BMP180;58935;54.498;18.544;2022-08-21T19:05:23;100511.00;;;17.20
71205;BMP180;58935;54.498;18.544;2022-08-21T19:07:49;100515.80;;;17.20
71205;BMP180;58935;54.498;18.544;2022-08-21T19:10:17;100516.20;;;17.28
71205;BMP180;58935;54.498;18.544;2022-08-21T19:12:43;100526.00;;;17.30
71205;BMP180;58935;54.498;18.544;2022-08-21T19:15:15;100526.40;;;17.38
71205;BMP180;58935;54.498;18.544;2022-08-21T19:17:42;100524.00;;;17.40
71205;BMP180;58935;54.498;18.544;2022-08-21T19:20:17;100524.80;;;17.50
71205;BMP180;58935;54.498;18.544;2022-08-21T19:22:44;100520.20;;;17.50
71205;BMP180;58935;54.498;18.544;2022-08-21T19:25:10;100526.00;;;17.60
71205;BMP180;58935;54.498;18.544;2022-08-21T19:27:36;100526.80;;;17.60
71205;BMP180;58935;54.498;18.544;2022-08-21T19:30:05;100524.00;;;17.66
71205;BMP180;58935;54.498;18.544;2022-08-21T19:32:31;100527.80;;;17.70
71205;BMP180;58935;54.498;18.544;2022-08-21T19:34:57;100530.00;;;17.70
71205;BMP180;58935;54.498;18.544;2022-08-21T19:37:22;100534.60;;;17.70
71205;BMP180;58935;54.498;18.544;2022-08-21T19:39:48;100535.60;;;17.70
71205;BMP180;58935;54.498;18.544;2022-08-21T19:42:15;100531.80;;;17.76
71205;BMP180;58935;54.498;18.544;2022-08-21T19:44:42;100532.40;;;17.80
71205;BMP180;58935;54.498;18.544;2022-08-21T19:47:14;100523.80;;;17.80
71205;BMP180;58935;54.498;18.544;2022-08-21T19:49:47;100532.60;;;17.80
71205;BMP180;58935;54.498;18.544;2022-08-21T19:52:13;100530.60;;;17.80
71205;BMP180;58935;54.498;18.544;2022-08-21T19:54:39;100530.80;;;17.80
71205;BMP180;58935;54.498;18.544;2022-08-21T19:57:06;100536.20;;;17.80
71205;BMP180;58935;54.498;18.544;2022-08-21T19:59:35;100531.60;;;17.80
71205;BMP180;58935;54.498;18.544;2022-08-21T20:02:01;100535.40;;;17.90
71205;BMP180;58935;54.498;18.544;2022-08-21T20:04:26;100532.80;;;17.90
71205;BMP180;58935;54.498;18.544;2022-08-21T20:06:52;100535.60;;;17.90
71205;BMP180;58935;54.498;18.544;2022-08-21T20:09:18;100539.60;;;17.86
71205;BMP180;58935;54.498;18.544;2022-08-21T20:11:50;100532.00;;;17.80
71205;BMP180;58935;54.498;18.544;2022-08-21T20:14:21;100535.80;;;17.80
71205;BMP180;58935;54.498;18.544;2022-08-21T20:16:48;100534.40;;;17.80
71205;BMP180;58935;54.498;18.544;2022-08-21T20:19:16;100530.60;;;17.84
71205;BMP180;58935;54.498;18.544;2022-08-21T20:21:41;100528.20;;;17.80
71205;BMP180;58935;54.498;18.544;2022-08-21T20:24:09;100527.60;;;17.80
71205;BMP180;58935;54.498;18.544;2022-08-21T20:26:35;100527.80;;;17.80
71205;BMP180;58935;54.498;18.544;2022-08-21T20:29:04;100528.80;;;17.80
71205;BMP180;58935;54.498;18.544;2022-08-21T20:31:30;100528.80;;;17.80
71205;BMP180;58935;54.498;18.544;2022-08-21T20:33:56;100528.60;;;17.72
71205;BMP180;58935;54.498;18.544;2022-08-21T20:36:22;100530.60;;;17.80
71205;BMP180;58935;54.498;18.544;2022-08-21T20:38:49;100528.80;;;17.80
71205;BMP180;58935;54.498;18.544;2022-08-21T20:41:20;100525.60;;;17.76
71205;BMP180;58935;54.498;18.544;2022-08-21T20:43:46;100531.20;;;17.70
71205;BMP180;58935;54.498;18.544;2022-08-21T20:46:18;100534.40;;;17.64
71205;BMP180;58935;54.498;18.544;2022-08-21T20:48:45;100531.00;;;17.70
71205;BMP180;58935;54.498;18.544;2022-08-21T20:51:19;100532.20;;;17.70
71205;BMP180;58935;54.498;18.544;2022-08-21T20:53:56;100535.40;;;17.70
71205;BMP180;58935;54.498;18.544;2022-08-21T20:56:38;100533.60;;;17.70
71205;BMP180;58935;54.498;18.544;2022-08-21T20:59:18;100531.80;;;17.80
71205;BMP180;58935;54.498;18.544;2022-08-21T21:01:47;100531.60;;;17.80
71205;BMP180;58935;54.498;18.544;2022-08-21T21:04:32;100528.80;;;17.80
71205;BMP180;58935;54.498;18.544;2022-08-21T21:07:02;100527.80;;;17.80
71205;BMP180;58935;54.498;18.544;2022-08-21T21:09:37;100528.20;;;17.72
71205;BMP180;58935;54.498;18.544;2022-08-21T21:12:14;100532.20;;;17.70
71205;BMP180;58935;54.498;18.544;2022-08-21T21:14:49;100533.20;;;17.70
71205;BMP180;58935;54.498;18.544;2022-08-21T21:17:26;100537.00;;;17.70
71205;BMP180;58935;54.498;18.544;2022-08-21T21:22:39;100536.80;;;17.70
71205;BMP180;58935;54.498;18.544;2022-08-21T21:25:17;100539.00;;;17.80
71205;BMP180;58935;54.498;18.544;2022-08-21T21:27:54;100534.20;;;17.80
71205;BMP180;58935;54.498;18.544;2022-08-21T21:30:30;100532.40;;;17.80
71205;BMP180;58935;54.498;18.544;2022-08-21T21:32:57;100534.00;;;17.80
71205;BMP180;58935;54.498;18.544;2022-08-21T21:35:34;100539.40;;;17.80
71205;BMP180;58935;54.498;18.544;2022-08-21T21:38:29;100537.40;;;17.80
71205;BMP180;58935;54.498;18.544;2022-08-21T21:41:30;100538.60;;;17.82
71205;BMP180;58935;54.498;18.544;2022-08-21T21:44:15;100539.80;;;17.80
71205;BMP180;58935;54.498;18.544;2022-08-21T21:46:57;100538.60;;;17.80
71205;BMP180;58935;54.498;18.544;2022-08-21T21:52:57;100538.40;;;17.80
71205;BMP180;58935;54.498;18.544;2022-08-21T21:55:53;100542.60;;;17.80
71205;BMP180;58935;54.498;18.544;2022-08-21T21:58:50;100539.60;;;17.82
71205;BMP180;58935;54.498;18.544;2022-08-21T22:04:45;100528.20;;;17.80
71205;BMP180;58935;54.498;18.544;2022-08-21T22:07:35;100529.40;;;17.70
71205;BMP180;58935;54.498;18.544;2022-08-21T22:10:20;100527.80;;;17.70
71205;BMP180;58935;54.498;18.544;2022-08-21T22:15:31;100527.40;;;17.80
71205;BMP180;58935;54.498;18.544;2022-08-21T22:18:05;100529.80;;;17.78
71205;BMP180;58935;54.498;18.544;2022-08-21T22:20:41;100530.40;;;17.80
71205;BMP180;58935;54.498;18.544;2022-08-21T22:23:19;100527.20;;;17.80
71205;BMP180;58935;54.498;18.544;2022-08-21T22:25:49;100527.00;;;17.80
71205;BMP180;58935;54.498;18.544;2022-08-21T22:28:22;100523.00;;;17.80
71205;BMP180;58935;54.498;18.544;2022-08-21T22:30:55;100525.40;;;17.80
71205;BMP180;58935;54.498;18.544;2022-08-21T22:33:27;100528.60;;;17.80
71205;BMP180;58935;54.498;18.544;2022-08-21T22:35:56;100533.80;;;17.80
71205;BMP180;58935;54.498;18.544;2022-08-21T22:38:31;100535.40;;;17.80
71205;BMP180;58935;54.498;18.544;2022-08-21T22:43:33;100527.60;;;17.80
71205;BMP180;58935;54.498;18.544;2022-08-21T22:46:07;100532.40;;;17.80
71205;BMP180;58935;54.498;18.544;2022-08-21T22:48:39;100539.00;;;17.80
71205;BMP180;58935;54.498;18.544;2022-08-21T22:51:38;100538.80;;;17.80
71205;BMP180;58935;54.498;18.544;2022-08-21T22:54:05;100535.00;;;17.80
71205;BMP180;58935;54.498;18.544;2022-08-21T22:56:37;100531.80;;;17.80
71205;BMP180;58935;54.498;18.544;2022-08-21T23:01:58;100532.40;;;17.90
71205;BMP180;58935;54.498;18.544;2022-08-21T23:04:25;100536.00;;;17.90
71205;BMP180;58935;54.498;18.544;2022-08-21T23:06:59;100539.00;;;17.90
71205;BMP180;58935;54.498;18.544;2022-08-21T23:09:45;100536.20;;;17.88
71205;BMP180;58935;54.498;18.544;2022-08-21T23:12:25;100535.00;;;17.80
71205;BMP180;58935;54.498;18.544;2022-08-21T23:14:52;100538.00;;;17.80
71205;BMP180;58935;54.498;18.544;2022-08-21T23:20:24;100540.40;;;17.90
71205;BMP180;58935;54.498;18.544;2022-08-21T23:25:51;100542.80;;;18.00
71205;BMP180;58935;54.498;18.544;2022-08-21T23:31:24;100536.00;;;18.00
71205;BMP180;58935;54.498;18.544;2022-08-21T23:34:21;100542.80;;;17.92
71205;BMP180;58935;54.498;18.544;2022-08-21T23:37:05;100537.40;;;17.90
71205;BMP180;58935;54.498;18.544;2022-08-21T23:46:12;100537.40;;;17.90
71205;BMP180;58935;54.498;18.544;2022-08-21T23:49:02;100536.40;;;17.90
71205;BMP180;58935;54.498;18.544;2022-08-21T23:54:58;100532.60;;;17.90
